createdAt,value
2023-05-11T00:01:44.341Z,100230.05
2023-05-11T00:05:54.412Z,100230.14
2023-05-11T00:10:02.452Z,100226.81
2023-05-11T00:14:10.024Z,100229.59
2023-05-11T00:18:17.691Z,100226.30
2023-05-11T00:22:25.736Z,100224.70
2023-05-11T00:26:33.905Z,100225.38
2023-05-11T00:30:44.639Z,100229.08
2023-05-11T00:34:52.090Z,100231.88
2023-05-11T00:38:59.681Z,100226.70
2023-05-11T00:43:07.591Z,100232.23
2023-05-11T00:47:15.805Z,100234.55
2023-05-11T00:51:24.227Z,100231.42
2023-05-11T00:55:32.146Z,100237.18
2023-05-11T00:59:40.116Z,100236.48
2023-05-11T01:03:48.335Z,100236.88
2023-05-11T01:08:03.733Z,100234.63
2023-05-11T01:12:19.050Z,100242.45
2023-05-11T01:16:28.276Z,100238.16
2023-05-11T01:20:37.931Z,100237.69
2023-05-11T01:25:00.468Z,100233.21
2023-05-11T01:29:36.562Z,100241.39
2023-05-11T01:33:49.472Z,100236.91
2023-05-11T01:37:59.502Z,100240.45
2023-05-11T01:42:11.249Z,100242.86
2023-05-11T01:46:20.870Z,100239.47
2023-05-11T01:50:28.861Z,100243.77
2023-05-11T01:54:41.492Z,100240.77
2023-05-11T01:58:50.578Z,100246.15
2023-05-11T02:03:00.149Z,100243.05
2023-05-11T02:07:08.838Z,100245.73
2023-05-11T02:11:18.298Z,100251.06
2023-05-11T02:15:26.969Z,100251.83
2023-05-11T02:19:37.329Z,100254.41
2023-05-11T02:23:46.660Z,100250.07
2023-05-11T02:27:55.014Z,100254.45
2023-05-11T02:32:08.277Z,100253.64
2023-05-11T02:36:19.287Z,100254.01
2023-05-11T02:40:35.382Z,100252.27
2023-05-11T02:44:46.203Z,100250.42
2023-05-11T02:48:57.213Z,100256.70
2023-05-11T02:53:07.732Z,100255.75
2023-05-11T02:57:16.002Z,100257.63
2023-05-11T03:01:23.696Z,100260.40
2023-05-11T03:05:32.437Z,100260.35
2023-05-11T03:09:40.081Z,100262.05
2023-05-11T03:13:50.641Z,100259.65
2023-05-11T03:17:59.231Z,100257.08
2023-05-11T03:22:08.311Z,100255.35
2023-05-11T03:26:19.164Z,100258.14
2023-05-11T03:30:27.354Z,100253.84
2023-05-11T03:34:35.491Z,100254.64
2023-05-11T03:38:43.553Z,100263.70
2023-05-11T03:42:52.253Z,100256.52
2023-05-11T03:47:01.352Z,100261.27
2023-05-11T03:51:09.768Z,100259.94
2023-05-11T03:55:18.161Z,100265.27
2023-05-11T03:59:25.772Z,100269.11
2023-05-11T04:03:33.460Z,100264.27
2023-05-11T04:07:41.917Z,100261.93
2023-05-11T04:11:50.286Z,100268.48
2023-05-11T04:15:59.033Z,100276.95
2023-05-11T04:20:08.568Z,100269.77
2023-05-11T04:24:16.176Z,100273.92
2023-05-11T04:28:28.819Z,100271.49
2023-05-11T04:32:37.767Z,100271.85
2023-05-11T04:36:45.651Z,100276.95
2023-05-11T04:40:53.532Z,100281.96
2023-05-11T04:45:01.289Z,100279.02
2023-05-11T04:49:09.426Z,100289.86
2023-05-11T04:53:19.560Z,100280.99
2023-05-11T04:57:28.768Z,100290.81
2023-05-11T05:01:36.758Z,100285.40
2023-05-11T05:05:44.612Z,100294.86
2023-05-11T05:09:52.336Z,100297.77
2023-05-11T05:14:00.169Z,100298.00
2023-05-11T05:18:08.562Z,100295.88
2023-05-11T05:22:16.458Z,100301.23
2023-05-11T05:26:24.820Z,100289.52
2023-05-11T05:30:33.561Z,100304.11
2023-05-11T05:34:42.529Z,100300.17
2023-05-11T05:38:50.049Z,100301.00
2023-05-11T05:42:58.107Z,100300.73
2023-05-11T05:47:06.636Z,100303.36
2023-05-11T05:51:14.658Z,100305.30
2023-05-11T05:55:24.704Z,100304.66
2023-05-11T05:59:33.500Z,100307.98
2023-05-11T06:03:41.411Z,100303.45
2023-05-11T06:07:57.894Z,100309.17
2023-05-11T06:12:17.031Z,100309.16
2023-05-11T06:16:25.514Z,100300.50
2023-05-11T06:20:34.896Z,100301.43
2023-05-11T06:24:43.837Z,100302.23
2023-05-11T06:28:51.270Z,100302.52
2023-05-11T06:32:59.578Z,100303.16
2023-05-11T06:37:07.831Z,100300.45
2023-05-11T06:41:15.051Z,100304.63
2023-05-11T06:45:22.714Z,100306.11
2023-05-11T06:49:30.219Z,100308.70
2023-05-11T06:53:43.603Z,100307.57
2023-05-11T06:57:51.775Z,100303.71
2023-05-11T07:01:59.352Z,100305.75
2023-05-11T07:06:07.508Z,100299.42
2023-05-11T07:10:15.722Z,100301.61
2023-05-11T07:14:23.517Z,100300.61
2023-05-11T07:18:31.776Z,100302.88
2023-05-11T07:22:39.670Z,100303.42
2023-05-11T07:26:49.252Z,100307.38
2023-05-11T07:30:56.364Z,100306.83
2023-05-11T07:35:06.856Z,100310.80
2023-05-11T07:39:16.573Z,100312.76
2023-05-11T07:43:25.443Z,100314.81
2023-05-11T07:47:36.926Z,100318.60
2023-05-11T07:51:45.039Z,100316.00
2023-05-11T07:55:53.149Z,100319.52
2023-05-11T08:00:08.205Z,100314.10
2023-05-11T08:04:16.720Z,100314.91
2023-05-11T08:08:25.439Z,100315.40
2023-05-11T08:12:33.810Z,100316.42
2023-05-11T08:16:41.631Z,100313.57
2023-05-11T08:20:49.636Z,100318.19
2023-05-11T08:25:00.790Z,100309.66
2023-05-11T08:29:08.774Z,100310.23
2023-05-11T08:33:35.899Z,100311.28
2023-05-11T08:37:43.881Z,100306.37
2023-05-11T08:41:52.407Z,100310.05
2023-05-11T08:46:05.800Z,100307.29
2023-05-11T08:50:15.315Z,100306.73
2023-05-11T08:54:23.273Z,100306.13
2023-05-11T08:58:33.965Z,100304.98
2023-05-11T09:02:41.738Z,100303.70
2023-05-11T09:06:50.931Z,100307.35
2023-05-11T09:10:59.100Z,100307.02
2023-05-11T09:15:13.205Z,100302.14
2023-05-11T09:19:22.292Z,100300.09
2023-05-11T09:23:30.692Z,100296.25
2023-05-11T09:27:41.009Z,100297.50
2023-05-11T09:31:50.219Z,100296.36
2023-05-11T09:35:59.993Z,100292.28
2023-05-11T09:40:26.220Z,100290.30
2023-05-11T09:44:35.622Z,100294.05
2023-05-11T09:48:45.967Z,100293.59
2023-05-11T09:52:54.523Z,100289.38
2023-05-11T09:57:02.957Z,100291.74
2023-05-11T10:01:10.582Z,100281.58
2023-05-11T10:05:18.598Z,100281.39
2023-05-11T10:09:27.672Z,100284.85
2023-05-11T10:13:36.037Z,100276.83
2023-05-11T10:17:45.778Z,100272.73
2023-05-11T10:21:54.754Z,100269.84
2023-05-11T10:26:03.188Z,100265.98
2023-05-11T10:30:17.201Z,100266.20
2023-05-11T10:34:26.319Z,100261.50
2023-05-11T10:38:34.137Z,100260.18
2023-05-11T10:43:15.570Z,100260.97
2023-05-11T10:47:53.719Z,100259.36
2023-05-11T10:52:15.182Z,100260.19
2023-05-11T10:56:34.527Z,100257.38
2023-05-11T11:01:18.837Z,100251.66
2023-05-11T11:05:38.969Z,100248.05
2023-05-11T11:09:57.535Z,100245.62
2023-05-11T11:14:06.815Z,100250.37
2023-05-11T11:18:27.603Z,100248.58
2023-05-11T11:22:49.408Z,100243.34
2023-05-11T11:26:57.512Z,100241.63
2023-05-11T11:31:27.719Z,100248.13
2023-05-11T11:35:52.361Z,100250.67
2023-05-11T11:40:13.912Z,100246.98
2023-05-11T11:44:25.716Z,100250.80
2023-05-11T11:48:36.631Z,100246.85
2023-05-11T11:52:44.809Z,100244.60
2023-05-11T11:56:52.671Z,100244.14
2023-05-11T12:01:00.373Z,100246.54
2023-05-11T12:05:14.195Z,100247.88
2023-05-11T12:09:23.626Z,100246.09
2023-05-11T12:13:34.811Z,100242.61
2023-05-11T12:17:42.608Z,100244.04
2023-05-11T12:21:52.049Z,100234.86
2023-05-11T12:26:07.912Z,100231.70
2023-05-11T12:30:23.146Z,100224.39
2023-05-11T12:34:32.075Z,100223.99
2023-05-11T12:38:46.774Z,100219.13
2023-05-11T12:42:56.926Z,100216.52
2023-05-11T12:47:08.409Z,100213.00
2023-05-11T12:51:17.533Z,100209.82
2023-05-11T12:55:32.250Z,100205.16
2023-05-11T12:59:41.797Z,100198.95
2023-05-11T13:03:50.285Z,100196.37
2023-05-11T13:08:05.670Z,100199.64
2023-05-11T13:12:22.356Z,100192.92
2023-05-11T13:16:31.997Z,100189.54
2023-05-11T13:20:41.778Z,100181.55
2023-05-11T13:24:51.148Z,100182.77
2023-05-11T13:29:10.143Z,100181.31
2023-05-11T13:33:20.818Z,100183.13
2023-05-11T13:37:29.118Z,100176.18
2023-05-11T13:41:37.522Z,100174.28
2023-05-11T13:45:46.336Z,100171.64
2023-05-11T13:49:56.689Z,100170.39
2023-05-11T13:54:04.643Z,100168.21
2023-05-11T13:58:12.649Z,100163.01
2023-05-11T14:02:20.281Z,100160.05
2023-05-11T14:06:28.563Z,100154.61
2023-05-11T14:10:36.715Z,100154.67
2023-05-11T14:14:44.246Z,100156.77
2023-05-11T14:18:53.332Z,100158.66
2023-05-11T14:23:02.268Z,100153.11
2023-05-11T14:27:11.025Z,100146.53
2023-05-11T14:31:20.047Z,100140.83
2023-05-11T14:35:28.555Z,100138.66
2023-05-11T14:39:36.157Z,100143.33
2023-05-11T14:43:44.257Z,100146.70
2023-05-11T14:47:52.377Z,100146.15
2023-05-11T14:52:00.282Z,100141.19
2023-05-11T14:56:09.361Z,100139.67
2023-05-11T15:00:18.599Z,100144.83
2023-05-11T15:04:27.307Z,100142.12
2023-05-11T15:08:35.813Z,100140.44
2023-05-11T15:12:43.350Z,100144.30
2023-05-11T15:16:52.613Z,100139.50
2023-05-11T15:21:02.046Z,100136.04
2023-05-11T15:25:11.338Z,100137.33
2023-05-11T15:29:20.825Z,100142.11
2023-05-11T15:33:28.486Z,100146.06
2023-05-11T15:37:36.320Z,100144.75
2023-05-11T15:41:44.225Z,100148.53
2023-05-11T15:45:52.938Z,100145.46
2023-05-11T15:50:00.820Z,100144.79
2023-05-11T15:54:08.795Z,100145.48
2023-05-11T15:58:16.898Z,100150.61
2023-05-11T16:02:26.846Z,100153.61
2023-05-11T16:06:36.524Z,100154.21
2023-05-11T16:10:44.439Z,100159.80
2023-05-11T16:14:52.556Z,100159.05
2023-05-11T16:19:03.132Z,100156.28
2023-05-11T16:23:11.161Z,100150.75
2023-05-11T16:27:19.397Z,100151.55
2023-05-11T16:31:29.949Z,100146.79
2023-05-11T16:35:38.009Z,100147.31
2023-05-11T16:39:46.188Z,100145.07
2023-05-11T16:43:54.050Z,100146.39
2023-05-11T16:48:02.074Z,100144.52
2023-05-11T16:52:10.486Z,100143.64
2023-05-11T16:56:20.904Z,100144.38
2023-05-11T17:00:31.733Z,100140.25
2023-05-11T17:04:41.007Z,100139.51
2023-05-11T17:08:48.849Z,100144.80
2023-05-11T17:12:57.853Z,100147.47
2023-05-11T17:17:07.494Z,100145.89
2023-05-11T17:21:15.133Z,100147.98
2023-05-11T17:25:23.226Z,100151.59
2023-05-11T17:29:31.362Z,100149.14
2023-05-11T17:33:39.114Z,100151.30
2023-05-11T17:37:46.836Z,100153.92
2023-05-11T17:41:54.647Z,100156.22
2023-05-11T17:46:04.255Z,100157.80
2023-05-11T17:50:13.669Z,100164.45
2023-05-11T17:54:21.371Z,100167.86
2023-05-11T17:58:29.250Z,100169.09
2023-05-11T18:02:37.628Z,100174.52
2023-05-11T18:06:48.918Z,100176.34
2023-05-11T18:10:57.872Z,100179.73
2023-05-11T18:15:06.214Z,100181.47
2023-05-11T18:19:13.928Z,100182.87
2023-05-11T18:23:21.755Z,100190.53
2023-05-11T18:27:29.556Z,100193.02
2023-05-11T18:31:37.110Z,100197.95
2023-05-11T18:35:44.796Z,100204.34
2023-05-11T18:39:52.260Z,100207.29
2023-05-11T18:44:00.513Z,100212.35
2023-05-11T18:48:08.645Z,100217.55
2023-05-11T18:52:19.560Z,100219.48
2023-05-11T18:56:35.392Z,100221.33
2023-05-11T19:00:43.255Z,100226.89
2023-05-11T19:04:50.594Z,100228.80
2023-05-11T19:08:58.443Z,100238.48
2023-05-11T19:13:06.780Z,100241.33
2023-05-11T19:17:16.011Z,100243.13
2023-05-11T19:21:23.781Z,100246.96
2023-05-11T19:25:31.326Z,100252.80
2023-05-11T19:29:38.866Z,100256.17
2023-05-11T19:33:46.086Z,100261.84
2023-05-11T19:38:03.533Z,100262.23
2023-05-11T19:42:11.480Z,100263.89
2023-05-11T19:46:20.176Z,100263.86
2023-05-11T19:50:29.581Z,100266.12
2023-05-11T19:54:37.510Z,100269.23
2023-05-11T19:58:45.220Z,100270.38
2023-05-11T20:02:52.845Z,100268.67
2023-05-11T20:07:00.943Z,100273.71
2023-05-11T20:11:08.954Z,100272.23
2023-05-11T20:15:18.130Z,100274.20
2023-05-11T20:19:28.591Z,100274.28
2023-05-11T20:23:37.729Z,100279.94
2023-05-11T20:27:45.561Z,100279.11
2023-05-11T20:31:53.192Z,100285.69
2023-05-11T20:36:02.232Z,100287.98
2023-05-11T20:40:12.797Z,100286.83
2023-05-11T20:44:21.050Z,100292.84
2023-05-11T20:48:39.596Z,100291.41
2023-05-11T20:52:49.025Z,100290.77
2023-05-11T20:56:58.331Z,100293.37
2023-05-11T21:01:06.696Z,100289.18
2023-05-11T21:05:14.149Z,100294.02
2023-05-11T21:09:22.441Z,100296.32
2023-05-11T21:13:30.637Z,100294.21
2023-05-11T21:17:38.566Z,100294.45
2023-05-11T21:21:49.459Z,100294.93
2023-05-11T21:25:58.770Z,100302.38
2023-05-11T21:30:07.897Z,100306.71
2023-05-11T21:34:17.188Z,100304.00
2023-05-11T21:38:26.836Z,100301.98
2023-05-11T21:42:36.282Z,100304.28
2023-05-11T21:46:46.833Z,100306.28
2023-05-11T21:50:58.146Z,100306.07
2023-05-11T21:55:06.262Z,100301.37
2023-05-11T21:59:16.534Z,100303.22
2023-05-11T22:03:29.633Z,100306.63
2023-05-11T22:07:37.860Z,100311.02
2023-05-11T22:11:45.509Z,100314.09
2023-05-11T22:15:54.110Z,100317.86
2023-05-11T22:20:02.179Z,100320.42
2023-05-11T22:24:11.188Z,100323.85
2023-05-11T22:28:19.028Z,100324.52
2023-05-11T22:32:30.063Z,100326.41
2023-05-11T22:36:38.013Z,100327.33
2023-05-11T22:40:45.860Z,100327.80
2023-05-11T22:44:53.967Z,100332.05
2023-05-11T22:49:02.221Z,100330.93
2023-05-11T22:53:10.134Z,100330.73
2023-05-11T22:57:17.634Z,100329.71
2023-05-11T23:01:26.655Z,100325.31
2023-05-11T23:05:35.173Z,100324.82
2023-05-11T23:09:42.676Z,100327.76
2023-05-11T23:13:50.087Z,100329.23
2023-05-11T23:17:59.790Z,100332.62
2023-05-11T23:22:07.669Z,100337.18
2023-05-11T23:26:15.189Z,100332.96
2023-05-11T23:30:23.611Z,100336.30
2023-05-11T23:34:31.116Z,100331.85
2023-05-11T23:38:38.817Z,100337.59
2023-05-11T23:42:46.739Z,100333.77
2023-05-11T23:46:55.007Z,100338.80
2023-05-11T23:51:02.834Z,100337.45
2023-05-11T23:55:12.223Z,100340.45
2023-05-11T23:59:23.852Z,100338.98
